Report METAR

 


LIBF - Foggia/Gino Lisa, Italy
Distance from station: NE 23km
Dati ricevuti: 29/05/2020 17:50
DATI Obsoleti
Parz. nuvoloso
Parz. nuvoloso
 Vento da ENE
Vento: ENE 6 km/h
Temperatura: 22°C
P.to Rugiada: 6°C
Umidità: 36%
Barometro: 1016 hPa
Nuvole: Parz. nuvoloso
Visibility: 10 km
Cloud details: Nubi sparse 1219 m
Parz. nuvoloso 2134 m
2020/05/29 15:50 LIBF 291550Z 06003KT 360V100 9999 FEW040 SCT070TCU 22/06 Q1016
LIRT - Trevico, Italy
Distance from station: SSO 28km
Dati ricevuti: 29/05/2020 19:55
DATI Obsoleti
Pioviggine, Nebbia
Pioviggine, Nebbia
 Vento da ONO
Vento: ONO 13 km/h
Temperatura: 9°C
Temperatura del Vento: 7°C
P.to Rugiada: 9°C
Umidità: 100%
Barometro: 1019 hPa
Summary: Pioviggine, Nebbia
Visibility: 0 km
2020/05/29 17:55 LIRT 291755Z 30007KT 0000 -RA FG VV/// 09/09 Q1019 RMK MON INVIS VAL INVIS VIS MIN 0000
LIBA - Amendola (it-Afb, Italy
Distance from station: NE 42km
Dati ricevuti: 29/05/2020 23:55
Molto nuvoloso
Molto nuvoloso
 Vento da ONO
Vento: ONO 15 km/h
Temperatura: 21°C
P.to Rugiada: 9°C
Umidità: 46%
Barometro: 1017 hPa
Nuvole: Molto nuvoloso
Visibility: 10 km
Cloud details: Parz. nuvoloso 1219 m
Molto nuvoloso 1524 m
2020/05/29 21:55 LIBA 292155Z 29008KT 9999 SCT040 BKN050 21/09 Q1017 RMK OVC VIS MIN 9999 WIND THR11 29009KT WIND THR29 /////KT BLU
 
LIRI - Pontecagnano (af, Italy
Distance from station: SSO 81km
Dati ricevuti: 29/05/2020 16:50
DATI Obsoleti
Parz. nuvoloso
Parz. nuvoloso
 Vento da ONO
Vento: ONO 9 km/h
Temperatura: 20°C
P.to Rugiada: 14°C
Umidità: 69%
Barometro: 1017 hPa
Nuvole: Parz. nuvoloso
Visibility: 10 km
Cloud details: Parz. nuvoloso 762 m
2020/05/29 14:50 LIRI 291450Z 30005KT 9999 SCT025 20/14 Q1017
LIRN - Naples/Capodichi, Italy
Distance from station: OSO 96km
Dati ricevuti: 29/05/2020 23:50
Coperto
Coperto
 Vento da NNE
Vento: NNE 9 km/h
Temperatura: 17°C
P.to Rugiada: 10°C
Umidità: 64%
Barometro: 1016 hPa
Nuvole: Coperto
Visibility: 10 km
Cloud details: Coperto 3048 m
2020/05/29 21:50 LIRN 292150Z AUTO 02005KT 9999 OVC100/// 17/10 Q1016
LIRM - Grazzanise (it-A, Italy
Distance from station: OSO 109km
Dati ricevuti: 29/05/2020 23:55
Parz. nuvoloso
Parz. nuvoloso
 Vento da NE
Vento: NE 11 km/h
Temperatura: 18°C
P.to Rugiada: 13°C
Umidità: 73%
Barometro: 1016 hPa
Nuvole: Parz. nuvoloso
Visibility: 10 km
Cloud details: Nubi sparse 549 m
Parz. nuvoloso 1219 m
2020/05/29 21:55 LIRM 292155Z 04006KT 9999 FEW018 SCT040 18/13 Q1016
 
LIBD - Bari/Palese Macc, Italy
Distance from station: E 121km
Dati ricevuti: 29/05/2020 23:50
Sereno
Sereno
 Vento da O
Vento: O 7 km/h
Temperatura: 14°C
P.to Rugiada: 11°C
Umidità: 82%
Barometro: 1017 hPa
Nuvole: Sereno
Visibility: 10 km
2020/05/29 21:50 LIBD 292150Z AUTO 26004KT 9999 NCD 14/11 Q1017
LIQC - Capri Island, Italy
Distance from station: SO 124km
Dati ricevuti: 29/05/2020 19:55
DATI Obsoleti
Parz. nuvoloso
Parz. nuvoloso
 Vento da O
Vento: O 4 km/h
Temperatura: 19°C
P.to Rugiada: 14°C
Umidità: 73%
Barometro: 1019 hPa
Nuvole: Parz. nuvoloso
Visibility: 10 km
Cloud details: Parz. nuvoloso 762 m
2020/05/29 17:55 LIQC 291755Z 28002KT 9999 SCT025 19/14 Q1019 RMK BKN BKN070 BKN200 QUK 1 QUL 1 S VIS MAR 25 KM VIS MIN 9999
LIBV - Gioia Del Colle, Italy
Distance from station: ESE 144km
Dati ricevuti: 29/05/2020 23:55
Nubi sparse
Nubi sparse
 Vento da NNO
Vento: NNO 6 km/h
Temperatura: 12°C
P.to Rugiada: 8°C
Umidità: 77%
Barometro: 1017 hPa
Nuvole: Nubi sparse
Visibility: 10 km
Cloud details: Nubi sparse 914 m
2020/05/29 21:55 LIBV 292155Z 34003KT 9999 FEW030 12/08 Q1017 RMK BKN BKN070 VIS MIN 9999 WIND THR32 36004KT WIND THR14 30003KT BLU
 
LIBP - Pescara, Italy
Distance from station: NO 159km
Dati ricevuti: 29/05/2020 23:50
Pioviggine, Coperto
Pioviggine, Coperto
 Vento da Variabile
Vento: Variabile 2 km/h
Temperatura: 14°C
P.to Rugiada: 13°C
Umidità: 94%
Barometro: 1019 hPa
Summary: Pioviggine
Nuvole: Coperto
Visibility: 10 km
Cloud details: Coperto 335 m
2020/05/29 21:50 LIBP 292150Z AUTO VRB01KT 9999 -RA OVC011/// 14/13 Q1019
LIBH - Marina Di Ginosa, Italy
Distance from station: SE 160km
Dati ricevuti: 29/05/2020 23:55
Sereno
Sereno
 Vento da NNE
Vento: NNE 13 km/h
Temperatura: 17°C
P.to Rugiada: 13°C
Umidità: 77%
Barometro: 1016 hPa
Summary: Sereno
Visibility: superiore a 10 km
2020/05/29 21:55 LIBH 292155Z 03007KT CAVOK 17/13 Q1016 RMK FEW FEW080 QUK / QUL / VIS MAR 20 KM VIS MIN 9999
LIRH - Frosinone (it-Af, Italy
Distance from station: ONO 174km
Dati ricevuti: 29/05/2020 16:55
DATI Obsoleti
Light thunderstorm, Pioggia, Mist, Nuvoloso
Light thunderstorm, Pioggia, Mist, Nuvoloso
 Vento da ONO
Vento: ONO 9 km/h
Temperatura: 13°C
P.to Rugiada: 13°C
Umidità: 100%
Barometro: 1018 hPa
Summary: Light thunderstorm, Pioggia, Mist
Nuvole: Molto nuvoloso
Visibility: 3 km
Cloud details: Nubi sparse 914 m
Molto nuvoloso 1067 m
2020/05/29 14:55 LIRH 291455Z 30005KT 3000 -TSRA BR FEW030CB BKN035 13/13 Q1018
 
LIBG - Grottaglie(Civ/A, Italy
Distance from station: ESE 192km
Dati ricevuti: 29/05/2020 19:50
DATI Obsoleti
Sereno
Sereno
 Vento da E
Vento: E 9 km/h
Temperatura: 20°C
P.to Rugiada: 10°C
Umidità: 53%
Barometro: 1016 hPa
Summary: Sereno
Visibility: superiore a 10 km
2020/05/29 17:50 LIBG 291750Z 09005KT CAVOK 20/10 Q1016
LIRL - Latina (it-Afb), Italy
Distance from station: O 205km
Dati ricevuti: 29/05/2020 19:55
DATI Obsoleti
Parz. nuvoloso
Parz. nuvoloso
 Vento da NNO
Vento: NNO 6 km/h
Temperatura: 14°C
P.to Rugiada: 12°C
Umidità: 88%
Barometro: 1017 hPa
Nuvole: Parz. nuvoloso
Visibility: 10 km
Cloud details: Nubi sparse 610 m
Parz. nuvoloso 2134 m
2020/05/29 17:55 LIRL 291755Z 34003KT 9999 FEW020 SCT070 14/12 Q1017
LIBR - Brindisi/Casale, Italy
Distance from station: ESE 231km
Dati ricevuti: 28/05/2020 22:50
DATI Obsoleti
Sereno
Sereno
 Vento da NO
Vento: NO 17 km/h
Temperatura: 18°C
P.to Rugiada: 13°C
Umidità: 73%
Barometro: 1019 hPa
Summary: Sereno
Visibility: superiore a 10 km
2020/05/28 20:50 LIBR 282050Z 31009KT CAVOK 18/13 Q1019
 
LIRG - Guidonia (it-Afb, Italy
Distance from station: ONO 232km
Dati ricevuti: 29/05/2020 19:55
DATI Obsoleti
Pioviggine, Nuvoloso
Pioviggine, Nuvoloso
 Vento da SO
Vento: SO 6 km/h
Temperatura: 13°C
P.to Rugiada: 9°C
Umidità: 77%
Barometro: 1018 hPa
Summary: Pioviggine
Nuvole: Molto nuvoloso
Visibility: 8 km
Cloud details: Parz. nuvoloso 914 m
Molto nuvoloso 975 m
2020/05/29 17:55 LIRG 291755Z 22003KT 8000 -RA SCT030 BKN032 13/09 Q1018
LIBQ - Scuro Mountain, Italy
Distance from station: SSE 235km
Dati ricevuti: 29/05/2020 17:55
DATI Obsoleti
Molto nuvoloso
Molto nuvoloso
 Vento da OSO
Vento: OSO 7 km/h
Temperatura: 9°C
Temperatura del Vento: 8°C
P.to Rugiada: 5°C
Umidità: 76%
Barometro: 1018 hPa
Nuvole: Molto nuvoloso
Visibility: 10 km
Cloud details: Parz. nuvoloso 61 m
Nubi sparse 91 m
Molto nuvoloso 914 m
2020/05/29 15:55 LIBQ 291555Z 25004KT 210V290 9999 SCT002 FEW003CB BKN030 09/05 Q1018
LIRA - Ciampino(It-Afb/, Italy
Distance from station: ONO 236km
Dati ricevuti: 29/05/2020 23:50
Nubi sparse
Nubi sparse
 Vento da NNO
Vento: NNO 7 km/h
Temperatura: 13°C
P.to Rugiada: 11°C
Umidità: 88%
Barometro: 1017 hPa
Nuvole: Nubi sparse
Visibility: 10 km
Cloud details: Nubi sparse 914 m
2020/05/29 21:50 LIRA 292150Z 34004KT 9999 FEW030 13/11 Q1017
 
LIQN - Rieti, Italy
Distance from station: ONO 243km
Dati ricevuti: 29/05/2020 19:50
DATI Obsoleti
Pioviggine, Parz. nuvoloso
Pioviggine, Parz. nuvoloso
 Vento da Variabile
Vento: Variabile 6 km/h
Temperatura: 11°C
P.to Rugiada: 10°C
Umidità: 94%
Barometro: 1017 hPa
Summary: Pioviggine
Nuvole: Parz. nuvoloso
Visibility: 7 km
Cloud details: Parz. nuvoloso 1463 m
2020/05/29 17:50 LIQN 291750Z VRB03KT 7000 -RA SCT048 11/10 Q1017
LIRE - Pratica Di Mare(, Italy
Distance from station: O 246km
Dati ricevuti: 29/05/2020 22:55
DATI Obsoleti
Pioviggine, Parz. nuvoloso
Pioviggine, Parz. nuvoloso
 Vento da E
Vento: E 7 km/h
Temperatura: 14°C
P.to Rugiada: 12°C
Umidità: 88%
Barometro: 1017 hPa
Summary: Pioviggine
Nuvole: Parz. nuvoloso
Visibility: 8 km
Cloud details: Parz. nuvoloso 549 m
Parz. nuvoloso 2134 m
2020/05/29 20:55 LIRE 292055Z 08004KT 8000 -RA SCT018 SCT070 14/12 Q1017 RMK OVC VIS MIN 8000 WIND THR13 16002KT WIND THR31 10004KT BLU